Chapel Saint Leonards, United Kingdom
Current Conditions -  °F | °C
As of 4:50 AM on Sunday 23 Nov 2014 (Local Time) from EGXS Reporting Station
Broken Clouds Broken Clouds  
Wind Chill: 44°   Ceiling: 4000
Heat Index: 48°   Visibility: 3mi
Dew Point: 48°   Wind: 10mph
Humidity: 100%   Direction: 290°WNW
Pressure: 29.97"   Gusts: NA
Location:  53.22°N, 0.32°E
Report Text: EGXS 230450Z AUTO 29009KT 5000 // FEW032/// BKN040/// BKN050/// 09/09 Q1015
Loading
Personal Weather Stations






























Interactive Weather Map New forecast layout! Learn more

10-Day Weather Forecast

Advertisements
Track Severe Weather on mobile